Terminal Aerodrome Forecast
Issued by NWS

Home | Current Version | Previous Version | Text Only | Print | Product List | Glossary On
Versions: 1 2 3 4 5 6 7 8 9 10 11 12 13 14 15
611
FTUS42 TJSJ 280529
TAFKPK
TAF
TKPK 280529Z 2806/2906 08009KT P6SM VCSH SCT020 BKN060
     FM281500 11012KT P6SM VCSH SCT018 BKN070
     FM282300 08010KT P6SM FEW020 BKN080
      AMD NOT SKED TIL 281100=

USA.gov is the U.S. government's official web portal to all federal, state and local government web resources and services.